Time;durP1;ratioP1;P1;durP2;ratioP2;P2;SDS_P1;SDS_P2;PMS_P1;PMS_P2;Temp;Humidity;BMP_temperature;BMP_pressure;BME280_temperature;BME280_humidity;BME280_pressure;Samples;Min_cycle;Max_cycle;Signal;HPM_P1;HPM_P2
2022/03/28 00:01:04;;;;;;;13.52;3.65;;;9.90;66.00;;;;;;5034041;28;20033;-67
2022/03/28 00:03:29;;;;;;;10.55;3.05;;;9.80;66.40;;;;;;5036563;28;20083;-67
2022/03/28 00:05:55;;;;;;;11.02;3.85;;;9.80;66.50;;;;;;5032275;28;20029;-67
2022/03/28 00:08:20;;;;;;;10.20;3.15;;;9.70;66.70;;;;;;5031361;28;20104;-67
2022/03/28 00:10:46;;;;;;;12.55;3.50;;;9.70;66.80;;;;;;5025636;28;20031;-67
2022/03/28 00:13:11;;;;;;;8.38;2.95;;;9.70;66.80;;;;;;5036162;28;20025;-67
2022/03/28 00:15:37;;;;;;;11.50;3.08;;;9.70;66.80;;;;;;5040183;28;20450;-68
2022/03/28 00:18:03;;;;;;;11.70;3.58;;;9.70;67.10;;;;;;5038169;28;20424;-68
2022/03/28 00:20:28;;;;;;;7.38;2.60;;;9.60;67.30;;;;;;5038749;28;20028;-68
2022/03/28 00:22:54;;;;;;;11.95;3.38;;;9.60;67.40;;;;;;5045940;28;20033;-68
2022/03/28 00:25:20;;;;;;;11.95;3.40;;;9.60;67.70;;;;;;5045317;28;20025;-68
2022/03/28 00:27:45;;;;;;;10.77;3.40;;;9.50;67.80;;;;;;5042475;28;20040;-67
2022/03/28 00:30:11;;;;;;;12.35;3.30;;;9.50;67.80;;;;;;5039118;28;20072;-67
2022/03/28 00:32:36;;;;;;;13.60;3.60;;;9.50;68.00;;;;;;5032997;28;20034;-67
2022/03/28 00:35:03;;;;;;;13.13;3.22;;;9.50;68.10;;;;;;5043679;28;20021;-67
2022/03/28 00:37:28;;;;;;;11.25;3.00;;;9.50;68.30;;;;;;5032525;28;20036;-67
2022/03/28 00:39:54;;;;;;;10.85;3.08;;;9.50;68.30;;;;;;5036308;28;20021;-67
2022/03/28 00:42:19;;;;;;;13.00;3.47;;;9.40;68.50;;;;;;5030486;28;20029;-67
2022/03/28 00:44:45;;;;;;;13.85;3.00;;;9.40;68.50;;;;;;5031178;28;20029;-67
2022/03/28 00:47:11;;;;;;;14.27;3.22;;;9.40;68.50;;;;;;5031430;28;20053;-67
2022/03/28 00:49:36;;;;;;;9.75;2.70;;;9.40;68.50;;;;;;5030974;28;20080;-67
2022/03/28 00:52:03;;;;;;;11.48;3.28;;;9.40;68.50;;;;;;5030514;28;20515;-67
2022/03/28 00:54:29;;;;;;;11.25;3.08;;;9.40;68.50;;;;;;5011817;28;20435;-67
2022/03/28 00:56:55;;;;;;;12.48;3.47;;;9.40;68.50;;;;;;5028259;28;20026;-68
2022/03/28 00:59:21;;;;;;;11.70;3.25;;;9.40;68.80;;;;;;5030440;28;20033;-67
2022/03/28 01:01:46;;;;;;;12.52;3.33;;;9.40;68.90;;;;;;5030910;28;20072;-67
2022/03/28 01:04:12;;;;;;;11.40;3.47;;;9.30;69.00;;;;;;5030916;28;20044;-69
2022/03/28 01:06:38;;;;;;;13.00;3.95;;;9.30;69.30;;;;;;5031016;28;20495;-69
2022/03/28 01:09:05;;;;;;;11.68;3.20;;;9.30;69.40;;;;;;5022188;28;20030;-68
2022/03/28 01:11:33;;;;;;;10.85;3.13;;;9.30;69.40;;;;;;5028806;28;20037;-68
2022/03/28 01:13:59;;;;;;;11.20;3.08;;;9.20;69.30;;;;;;5030898;28;20029;-68
2022/03/28 01:18:05;;;;;;;10.25;3.53;;;9.30;69.30;;;;;;5030762;28;20036;-69
2022/03/28 01:19:17;;;;;;;10.25;3.17;;;9.20;69.30;;;;;;5030611;28;20458;-69
2022/03/28 01:21:43;;;;;;;11.38;3.15;;;9.20;69.50;;;;;;5030601;28;20033;-69
2022/03/28 01:24:09;;;;;;;13.98;3.60;;;9.20;69.60;;;;;;5031733;28;20033;-69
2022/03/28 01:26:35;;;;;;;11.52;3.30;;;9.20;69.60;;;;;;5031136;28;20056;-69
2022/03/28 01:29:01;;;;;;;12.93;3.08;;;9.10;69.60;;;;;;5038989;28;20069;-69
2022/03/28 01:31:27;;;;;;;9.98;3.05;;;9.10;69.70;;;;;;5038165;28;20509;-69
2022/03/28 01:33:52;;;;;;;9.77;3.10;;;9.10;69.90;;;;;;5029314;28;20112;-69
2022/03/28 01:36:25;;;;;;;11.38;3.35;;;9.00;70.00;;;;;;5030000;28;20021;-69
2022/03/28 01:38:51;;;;;;;13.55;3.60;;;9.00;70.00;;;;;;5029870;28;20025;-69
2022/03/28 01:41:16;;;;;;;11.30;3.42;;;9.00;70.70;;;;;;5027751;28;20044;-69
2022/03/28 01:43:41;;;;;;;10.32;2.92;;;9.00;70.30;;;;;;5033055;28;20021;-69
2022/03/28 01:46:07;;;;;;;8.40;3.03;;;8.90;70.30;;;;;;5030670;28;20022;-69
2022/03/28 01:48:33;;;;;;;11.35;3.58;;;8.90;70.50;;;;;;5041991;28;20510;-69
2022/03/28 01:50:58;;;;;;;9.90;3.00;;;8.90;70.60;;;;;;5038170;28;20456;-69
2022/03/28 01:53:24;;;;;;;10.05;3.42;;;8.80;70.50;;;;;;5029750;28;20033;-69
2022/03/28 01:55:49;;;;;;;13.20;3.50;;;8.80;70.70;;;;;;5034238;28;20014;-69
2022/03/28 01:58:15;;;;;;;11.70;3.50;;;8.80;70.70;;;;;;5032149;28;20093;-69
2022/03/28 02:00:40;;;;;;;10.00;3.47;;;8.70;70.80;;;;;;5036150;28;20041;-69
2022/03/28 02:03:06;;;;;;;11.82;3.30;;;8.70;71.00;;;;;;5029303;28;20041;-69
2022/03/28 02:05:32;;;;;;;9.77;3.30;;;8.70;71.10;;;;;;5033188;28;20484;-69
2022/03/28 02:07:59;;;;;;;12.15;3.50;;;8.70;71.20;;;;;;5038715;28;20105;-69
2022/03/28 02:10:25;;;;;;;10.98;3.42;;;8.60;71.20;;;;;;5029333;28;20104;-69
2022/03/28 02:12:51;;;;;;;11.27;3.40;;;8.60;71.40;;;;;;5029399;28;20101;-69
2022/03/28 02:15:18;;;;;;;11.02;4.00;;;8.50;71.50;;;;;;5026149;28;20112;-69
2022/03/28 02:17:44;;;;;;;12.48;3.70;;;8.50;71.60;;;;;;5029992;28;20508;-69
2022/03/28 02:20:11;;;;;;;11.18;3.30;;;8.50;71.70;;;;;;5029078;28;20071;-69
2022/03/28 02:22:37;;;;;;;10.65;3.28;;;8.40;71.70;;;;;;5029901;28;20075;-69
2022/03/28 02:25:05;;;;;;;10.32;3.53;;;8.40;71.90;;;;;;5029440;28;20037;-69
2022/03/28 02:27:31;;;;;;;12.52;3.85;;;8.30;72.00;;;;;;5028403;28;20108;-69
2022/03/28 02:29:56;;;;;;;12.38;3.40;;;8.30;72.10;;;;;;5036446;28;20136;-69
2022/03/28 02:32:22;;;;;;;11.20;4.20;;;8.30;72.20;;;;;;5030881;28;20029;-69
2022/03/28 02:34:47;;;;;;;10.10;3.53;;;8.20;72.30;;;;;;5028050;28;20033;-69
2022/03/28 02:37:13;;;;;;;10.73;3.72;;;8.20;72.30;;;;;;5029317;28;20022;-69
2022/03/28 02:39:38;;;;;;;9.85;4.05;;;8.20;72.50;;;;;;5029161;28;20099;-69
2022/03/28 02:42:04;;;;;;;10.05;3.30;;;8.20;72.60;;;;;;5029400;28;20029;-68
2022/03/28 02:44:30;;;;;;;11.55;3.63;;;8.10;72.50;;;;;;5029424;28;20030;-69
2022/03/28 02:46:56;;;;;;;10.35;3.83;;;8.10;72.60;;;;;;5028920;28;20022;-68
2022/03/28 02:49:21;;;;;;;10.43;3.53;;;8.10;72.70;;;;;;5034173;28;20372;-70
2022/03/28 02:51:47;;;;;;;11.32;3.65;;;8.00;72.90;;;;;;5029762;28;20021;-69
2022/03/28 02:54:13;;;;;;;9.63;3.65;;;8.00;73.10;;;;;;5028765;28;20033;-68
2022/03/28 02:56:38;;;;;;;10.02;3.72;;;8.00;73.20;;;;;;5029001;28;20033;-68
2022/03/28 02:59:04;;;;;;;12.98;4.28;;;7.90;73.10;;;;;;5029324;28;20541;-68
2022/03/28 03:01:30;;;;;;;9.80;3.35;;;7.90;73.20;;;;;;5032452;28;20032;-69
2022/03/28 03:03:56;;;;;;;9.90;4.30;;;7.90;73.30;;;;;;5032971;28;20029;-69
2022/03/28 03:06:21;;;;;;;13.57;4.47;;;7.90;73.30;;;;;;5033247;28;20040;-69
2022/03/28 03:08:48;;;;;;;12.15;3.80;;;7.90;73.40;;;;;;5033750;28;20025;-69
2022/03/28 03:11:13;;;;;;;10.30;3.75;;;7.80;73.40;;;;;;5028244;28;20108;-69
2022/03/28 03:13:39;;;;;;;12.45;4.25;;;7.90;73.50;;;;;;5031391;28;20113;-69
2022/03/28 03:16:05;;;;;;;10.35;3.83;;;7.90;73.40;;;;;;5041420;28;20025;-68
2022/03/28 03:18:30;;;;;;;11.55;3.38;;;7.80;73.40;;;;;;5040027;28;20020;-69
2022/03/28 03:20:56;;;;;;;10.27;3.30;;;7.80;73.20;;;;;;5038651;28;20032;-68
2022/03/28 03:23:22;;;;;;;8.57;3.60;;;7.80;73.30;;;;;;5043834;28;20032;-69
2022/03/28 03:25:48;;;;;;;8.50;3.65;;;7.80;73.30;;;;;;5045644;28;20447;-69
2022/03/28 03:28:15;;;;;;;9.13;3.40;;;7.80;73.30;;;;;;5047630;28;20021;-68
2022/03/28 03:30:41;;;;;;;8.43;3.80;;;7.80;73.30;;;;;;5037623;28;20164;-68
2022/03/28 03:33:07;;;;;;;8.15;3.22;;;7.70;73.20;;;;;;5034586;28;20683;-68
2022/03/28 03:35:33;;;;;;;7.57;3.40;;;7.80;73.30;;;;;;5053680;28;20025;-68
2022/03/28 03:37:58;;;;;;;7.43;3.20;;;7.70;73.20;;;;;;5038288;28;20476;-68
2022/03/28 03:40:24;;;;;;;10.23;3.88;;;7.70;73.10;;;;;;5042961;28;20033;-69
2022/03/28 03:42:50;;;;;;;8.70;3.60;;;7.70;73.20;;;;;;5034076;28;20551;-68
2022/03/28 03:45:15;;;;;;;9.38;3.83;;;7.60;73.20;;;;;;5042101;28;20092;-68
2022/03/28 03:47:41;;;;;;;10.02;3.47;;;7.60;73.30;;;;;;5033169;28;20034;-69
2022/03/28 03:50:07;;;;;;;7.53;3.50;;;7.60;73.30;;;;;;5030560;28;20022;-68
2022/03/28 03:52:33;;;;;;;8.50;3.65;;;7.60;73.40;;;;;;5031336;28;20033;-68
2022/03/28 03:54:58;;;;;;;8.68;3.53;;;7.50;73.40;;;;;;5032103;28;20036;-68
2022/03/28 03:57:25;;;;;;;8.32;4.13;;;7.50;73.50;;;;;;5032351;28;20083;-68
2022/03/28 03:59:50;;;;;;;8.68;4.00;;;7.50;73.60;;;;;;5045648;28;20010;-68
2022/03/28 04:02:16;;;;;;;9.77;4.07;;;7.40;73.70;;;;;;5044105;28;20030;-69
2022/03/28 04:04:41;;;;;;;8.50;4.00;;;7.40;73.60;;;;;;5034838;28;20060;-68
2022/03/28 04:07:07;;;;;;;10.68;4.53;;;7.50;73.70;;;;;;5033352;28;20049;-68
2022/03/28 04:09:33;;;;;;;8.27;3.80;;;7.40;73.70;;;;;;5033396;28;20055;-69
2022/03/28 04:11:58;;;;;;;8.93;3.67;;;7.40;73.80;;;;;;5032174;28;20036;-68
2022/03/28 04:14:24;;;;;;;9.18;4.00;;;7.40;73.80;;;;;;5031063;28;20032;-68
2022/03/28 04:16:49;;;;;;;8.20;4.38;;;7.40;74.40;;;;;;5031441;28;20028;-68
2022/03/28 04:19:15;;;;;;;7.43;3.75;;;7.40;73.80;;;;;;5032046;28;20104;-68
2022/03/28 04:21:41;;;;;;;9.70;4.40;;;7.40;73.80;;;;;;5031733;28;20049;-68
2022/03/28 04:24:07;;;;;;;7.53;3.42;;;7.30;74.40;;;;;;5031842;28;20025;-68
2022/03/28 04:26:32;;;;;;;8.45;4.00;;;7.30;73.80;;;;;;5039582;28;20381;-68
2022/03/28 04:28:58;;;;;;;6.95;3.47;;;7.30;73.90;;;;;;5049467;28;20033;-68
2022/03/28 04:31:23;;;;;;;7.70;4.10;;;7.30;73.90;;;;;;5033539;28;20021;-68
2022/03/28 04:33:49;;;;;;;7.53;3.50;;;7.30;73.90;;;;;;5031047;28;20063;-67
2022/03/28 04:36:14;;;;;;;8.75;3.90;;;7.30;73.90;;;;;;5031664;28;20022;-67
2022/03/28 04:38:41;;;;;;;8.23;4.15;;;7.30;73.90;;;;;;5031103;28;20048;-68
2022/03/28 04:41:06;;;;;;;7.45;3.67;;;7.30;73.80;;;;;;5026487;28;20148;-67
2022/03/28 04:43:32;;;;;;;5.38;3.17;;;7.30;73.80;;;;;;5030926;28;20108;-68
2022/03/28 04:45:57;;;;;;;8.38;4.07;;;7.20;73.70;;;;;;5046055;28;20025;-67
2022/03/28 04:48:23;;;;;;;7.45;3.53;;;7.30;73.80;;;;;;5032145;28;20025;-68
2022/03/28 04:50:49;;;;;;;8.43;4.22;;;7.20;73.70;;;;;;5045329;28;20029;-67
2022/03/28 04:53:17;;;;;;;7.97;4.20;;;7.20;73.70;;;;;;5038572;28;20025;-67
2022/03/28 04:55:42;;;;;;;7.30;3.90;;;7.20;73.70;;;;;;5038440;28;20454;-67
2022/03/28 04:58:08;;;;;;;7.90;3.72;;;7.20;73.70;;;;;;5032231;28;20026;-67
2022/03/28 05:00:33;;;;;;;6.07;3.40;;;7.10;73.70;;;;;;5031705;28;20025;-68
2022/03/28 05:02:59;;;;;;;6.97;4.00;;;7.10;73.70;;;;;;5034686;28;20036;-68
2022/03/28 05:05:25;;;;;;;9.57;5.05;;;7.10;73.70;;;;;;5036539;28;20024;-68
2022/03/28 05:07:50;;;;;;;7.97;4.32;;;7.10;73.90;;;;;;5043799;28;20089;-67
2022/03/28 05:10:16;;;;;;;9.75;4.95;;;7.00;73.80;;;;;;5033498;28;20484;-67
2022/03/28 05:12:41;;;;;;;6.90;4.05;;;6.90;73.90;;;;;;5031562;28;20409;-67
2022/03/28 05:15:07;;;;;;;9.57;4.63;;;6.90;73.90;;;;;;5034888;28;20079;-67
2022/03/28 05:17:33;;;;;;;7.97;4.60;;;6.90;74.00;;;;;;5034474;28;20021;-69
2022/03/28 05:19:59;;;;;;;9.00;4.10;;;6.80;74.00;;;;;;5029283;28;20078;-68
2022/03/28 05:22:25;;;;;;;7.20;4.20;;;6.80;73.90;;;;;;5028435;28;20033;-68
2022/03/28 05:24:52;;;;;;;7.45;4.18;;;6.80;73.80;;;;;;5027657;28;20032;-68
2022/03/28 05:27:17;;;;;;;8.23;4.03;;;6.90;73.80;;;;;;5026640;28;20025;-69
2022/03/28 05:29:43;;;;;;;8.40;4.65;;;6.90;73.60;;;;;;5025626;28;20037;-70
2022/03/28 05:32:10;;;;;;;7.72;4.78;;;7.00;73.50;;;;;;5039482;28;20162;-69
2022/03/28 05:34:36;;;;;;;6.72;4.15;;;7.00;73.30;;;;;;5036858;28;20022;-68
2022/03/28 05:37:04;;;;;;;6.00;4.13;;;6.90;73.20;;;;;;5029910;28;20056;-69
2022/03/28 05:39:32;;;;;;;6.43;3.95;;;6.90;73.20;;;;;;5029691;28;20032;-70
2022/03/28 05:41:58;;;;;;;5.85;3.97;;;6.90;73.20;;;;;;5027148;28;20025;-69
2022/03/28 05:44:24;;;;;;;7.18;4.25;;;6.90;73.20;;;;;;5031054;28;20029;-68
2022/03/28 05:46:49;;;;;;;5.97;3.80;;;6.90;73.10;;;;;;5018241;28;20096;-70
2022/03/28 05:49:15;;;;;;;4.82;3.38;;;6.80;72.80;;;;;;5034929;28;20392;-70
2022/03/28 05:51:41;;;;;;;4.97;3.45;;;6.80;72.70;;;;;;5029479;28;20026;-68
2022/03/28 05:54:06;;;;;;;5.78;3.33;;;6.70;72.70;;;;;;5028439;28;20037;-69
2022/03/28 05:56:32;;;;;;;6.70;3.88;;;6.70;72.90;;;;;;5029652;28;20442;-69
2022/03/28 05:58:58;;;;;;;4.30;3.30;;;6.90;73.10;;;;;;5029392;28;20030;-70
2022/03/28 06:01:23;;;;;;;5.13;3.47;;;6.90;73.10;;;;;;5027298;28;20029;-69
2022/03/28 06:03:49;;;;;;;6.38;3.80;;;7.40;72.60;;;;;;5028540;28;20022;-70
2022/03/28 06:06:15;;;;;;;5.60;3.90;;;8.30;70.70;;;;;;5037861;28;20033;-70
2022/03/28 06:08:41;;;;;;;5.82;3.80;;;9.20;68.10;;;;;;5033661;28;20095;-70
2022/03/28 06:11:06;;;;;;;5.95;3.33;;;9.90;66.10;;;;;;5029753;28;20032;-70
2022/03/28 06:13:32;;;;;;;4.95;3.60;;;10.50;64.10;;;;;;5030908;28;20068;-71
2022/03/28 06:15:59;;;;;;;5.72;3.38;;;11.10;62.70;;;;;;5029016;28;20021;-70
2022/03/28 06:18:25;;;;;;;4.28;3.20;;;11.50;61.10;;;;;;5039814;28;20506;-70
2022/03/28 06:20:50;;;;;;;4.32;3.20;;;12.00;59.80;;;;;;5044788;28;20025;-69
2022/03/28 06:23:16;;;;;;;3.97;3.13;;;12.20;58.50;;;;;;5034512;28;20503;-70
2022/03/28 06:25:42;;;;;;;5.05;3.30;;;12.20;57.70;;;;;;5042289;28;20021;-69
2022/03/28 06:28:08;;;;;;;5.93;3.30;;;12.10;57.40;;;;;;5029825;28;20372;-70
2022/03/28 06:30:34;;;;;;;3.78;2.80;;;11.80;57.70;;;;;;5026889;28;20075;-70
2022/03/28 06:32:59;;;;;;;4.28;3.28;;;11.50;58.10;;;;;;5030583;28;20426;-70
2022/03/28 06:35:25;;;;;;;3.97;3.10;;;11.30;58.50;;;;;;5029069;28;20144;-70
2022/03/28 06:37:52;;;;;;;4.03;2.95;;;10.90;59.30;;;;;;5025405;28;20029;-69
2022/03/28 06:40:18;;;;;;;4.82;2.92;;;10.60;60.20;;;;;;5032007;28;20388;-69
2022/03/28 06:42:44;;;;;;;5.32;3.15;;;10.30;61.00;;;;;;5026158;28;20476;-70
2022/03/28 06:45:10;;;;;;;3.50;2.40;;;10.10;61.80;;;;;;5031511;28;20029;-70
2022/03/28 06:47:37;;;;;;;4.78;2.95;;;9.90;62.20;;;;;;5029843;28;20028;-69
2022/03/28 06:50:05;;;;;;;3.65;2.70;;;9.80;62.50;;;;;;5032885;28;20578;-70
2022/03/28 06:52:31;;;;;;;3.95;3.05;;;9.70;62.60;;;;;;5032726;28;20111;-69
2022/03/28 06:54:56;;;;;;;3.60;2.85;;;9.50;62.90;;;;;;5031625;28;20079;-70
2022/03/28 06:57:22;;;;;;;5.22;3.60;;;9.50;63.20;;;;;;5028830;28;20033;-70
2022/03/28 06:59:48;;;;;;;5.35;3.60;;;9.30;63.40;;;;;;5033367;28;20053;-70
2022/03/28 07:02:14;;;;;;;5.60;3.90;;;9.20;63.80;;;;;;5031360;28;20064;-70
2022/03/28 07:04:40;;;;;;;4.05;3.45;;;9.00;64.00;;;;;;5038762;28;20020;-70
2022/03/28 07:07:08;;;;;;;3.33;2.40;;;8.90;64.70;;;;;;5032298;28;20113;-70
2022/03/28 07:09:34;;;;;;;4.40;3.08;;;8.90;64.90;;;;;;5032169;28;20123;-69
2022/03/28 07:11:59;;;;;;;3.85;2.90;;;8.90;64.90;;;;;;5030972;28;20025;-70
2022/03/28 07:14:25;;;;;;;3.72;2.80;;;8.90;65.00;;;;;;5032691;28;20638;-69
2022/03/28 07:16:52;;;;;;;4.28;2.60;;;8.90;65.10;;;;;;5034755;28;20100;-69
2022/03/28 07:19:18;;;;;;;5.38;2.95;;;9.00;65.00;;;;;;5032783;28;20048;-69
2022/03/28 07:21:44;;;;;;;3.42;2.78;;;9.10;64.90;;;;;;5032746;28;20032;-70
2022/03/28 07:24:09;;;;;;;4.60;3.33;;;9.10;65.50;;;;;;5035521;28;20021;-71
2022/03/28 07:26:35;;;;;;;5.65;3.78;;;9.20;65.00;;;;;;5034379;28;20026;-70
2022/03/28 07:29:02;;;;;;;4.93;3.42;;;9.30;65.10;;;;;;5032209;28;20504;-69
2022/03/28 07:31:29;;;;;;;4.82;3.30;;;9.30;65.10;;;;;;5043460;28;20021;-70
2022/03/28 07:34:29;;;;;;;5.97;4.00;;;9.30;65.00;;;;;;5043242;28;20028;-71
2022/03/28 07:36:40;;;;;;;5.10;3.47;;;9.40;65.80;;;;;;5026231;28;20377;-71
2022/03/28 07:39:05;;;;;;;5.70;3.90;;;9.40;65.10;;;;;;5032235;28;20021;-70
2022/03/28 07:41:31;;;;;;;5.38;3.28;;;9.40;65.20;;;;;;5029739;28;20029;-71
2022/03/28 07:43:56;;;;;;;4.20;3.20;;;9.50;65.20;;;;;;5041644;28;20026;-71
2022/03/28 07:46:22;;;;;;;5.97;4.03;;;9.50;65.40;;;;;;5038710;28;20543;-70
2022/03/28 07:48:47;;;;;;;4.40;3.17;;;9.50;65.40;;;;;;5033368;28;20227;-71
2022/03/28 07:51:13;;;;;;;5.05;3.55;;;9.60;65.50;;;;;;5031622;28;20407;-71
2022/03/28 07:53:39;;;;;;;5.40;3.70;;;9.60;65.50;;;;;;5036392;28;20041;-70
2022/03/28 07:56:04;;;;;;;5.03;3.63;;;9.60;65.60;;;;;;5040513;28;20022;-69
2022/03/28 07:58:30;;;;;;;5.50;3.70;;;9.70;65.70;;;;;;5031616;28;20014;-69
2022/03/28 08:00:56;;;;;;;5.45;4.15;;;9.70;65.80;;;;;;5032670;28;20412;-69
2022/03/28 08:03:21;;;;;;;5.47;3.72;;;9.70;65.90;;;;;;5030525;28;20038;-70
2022/03/28 08:05:47;;;;;;;5.30;3.55;;;9.80;65.80;;;;;;5033944;28;20033;-70
2022/03/28 08:08:12;;;;;;;5.07;3.55;;;10.00;65.80;;;;;;5034093;28;20033;-70
2022/03/28 08:10:38;;;;;;;5.63;3.90;;;10.10;65.70;;;;;;5046597;28;20086;-69
2022/03/28 08:13:04;;;;;;;6.03;4.10;;;10.10;65.60;;;;;;5038813;28;20462;-69
2022/03/28 08:15:30;;;;;;;8.60;5.10;;;10.20;65.60;;;;;;5033545;28;20483;-70
2022/03/28 08:17:59;;;;;;;6.47;4.82;;;10.20;65.90;;;;;;5039974;28;20022;-71
2022/03/28 08:20:25;;;;;;;5.97;4.25;;;10.30;66.00;;;;;;5045613;28;20547;-69
2022/03/28 08:22:51;;;;;;;8.13;5.18;;;10.40;65.90;;;;;;5045008;28;20125;-70
2022/03/28 08:25:18;;;;;;;6.32;4.38;;;10.40;66.10;;;;;;5041097;28;20017;-70
2022/03/28 08:27:44;;;;;;;6.03;4.30;;;10.40;66.00;;;;;;5036493;28;20018;-69
2022/03/28 08:30:12;;;;;;;6.13;3.95;;;10.40;66.20;;;;;;5042834;28;20271;-70
2022/03/28 08:32:38;;;;;;;5.65;4.10;;;10.50;66.10;;;;;;5046813;28;20021;-69
2022/03/28 08:35:05;;;;;;;7.63;4.43;;;10.60;66.00;;;;;;5033753;28;20021;-69
2022/03/28 08:37:31;;;;;;;7.75;3.95;;;10.60;66.00;;;;;;5042362;28;20036;-71
2022/03/28 08:39:57;;;;;;;6.18;4.20;;;10.70;66.00;;;;;;5035285;28;20025;-71
2022/03/28 08:42:25;;;;;;;5.82;4.28;;;10.80;66.00;;;;;;5047244;28;20147;-71
2022/03/28 08:44:50;;;;;;;6.82;4.80;;;10.90;66.00;;;;;;5054864;28;20025;-70
2022/03/28 08:47:23;;;;;;;6.65;4.38;;;11.00;66.00;;;;;;5038210;28;20027;-70
2022/03/28 08:49:49;;;;;;;;;;;11.10;65.90;;;;;;5035833;28;20037;-71
2022/03/28 08:52:20;;;;;;;8.13;5.70;;;11.20;66.10;;;;;;5035990;28;20012;-70
2022/03/28 08:54:46;;;;;;;8.13;5.55;;;11.20;66.50;;;;;;5035954;28;20029;-70
2022/03/28 08:57:13;;;;;;;7.43;4.97;;;11.40;66.20;;;;;;5026348;28;20022;-70
2022/03/28 08:59:39;;;;;;;6.68;4.80;;;11.40;65.90;;;;;;5040262;28;20049;-70
2022/03/28 09:02:04;;;;;;;7.05;4.72;;;11.50;65.80;;;;;;5021460;28;20439;-70
2022/03/28 09:04:30;;;;;;;7.07;4.97;;;11.50;65.60;;;;;;5028821;28;20387;-70
2022/03/28 09:06:57;;;;;;;8.23;5.43;;;11.60;65.70;;;;;;5042626;28;20096;-71
2022/03/28 09:09:27;;;;;;;9.13;6.05;;;11.60;65.70;;;;;;5043045;28;20029;-71
2022/03/28 09:11:58;;;;;;;8.70;5.90;;;11.80;66.10;;;;;;5033370;28;20519;-70
2022/03/28 09:14:29;;;;;;;10.30;6.93;;;11.90;65.80;;;;;;5031594;28;20469;-70
2022/03/28 09:17:01;;;;;;;8.77;5.93;;;12.00;65.70;;;;;;5031655;28;20029;-70
2022/03/28 09:19:45;;;;;;;8.35;5.13;;;12.00;65.50;;;;;;5031845;28;20498;-70
2022/03/28 09:22:12;;;;;;;7.65;4.85;;;12.20;65.10;;;;;;5027559;28;20025;-70
2022/03/28 09:24:38;;;;;;;10.65;6.70;;;12.30;64.90;;;;;;5026910;28;20516;-70
2022/03/28 09:27:31;;;;;;;10.77;7.25;;;12.30;64.80;;;;;;5032826;28;20106;-70
2022/03/28 09:30:12;;;;;;;9.27;5.40;;;12.40;64.70;;;;;;5018128;28;20520;-71
2022/03/28 09:32:43;;;;;;;8.05;5.22;;;12.60;64.40;;;;;;5028846;28;20455;-70
2022/03/28 09:35:12;;;;;;;12.02;7.72;;;12.70;64.30;;;;;;5029642;28;20435;-70
2022/03/28 09:38:08;;;;;;;10.02;7.10;;;12.70;64.20;;;;;;5030896;28;20025;-70
2022/03/28 09:40:45;;;;;;;10.80;7.20;;;12.70;64.20;;;;;;5012483;28;20038;-70
2022/03/28 09:43:52;;;;;;;11.85;8.48;;;12.70;64.30;;;;;;5027384;28;20112;-70
2022/03/28 09:46:27;;;;;;;10.43;7.03;;;12.80;64.40;;;;;;4999489;28;20464;-70
2022/03/28 09:48:53;;;;;;;10.70;6.85;;;13.00;64.30;;;;;;5029315;28;20116;-70
2022/03/28 09:51:21;;;;;;;9.38;6.55;;;13.10;64.20;;;;;;5030049;28;20025;-71
2022/03/28 09:53:47;;;;;;;10.05;7.53;;;13.40;63.60;;;;;;5028701;28;20021;-70
2022/03/28 09:56:13;;;;;;;9.68;6.85;;;13.40;63.30;;;;;;5025508;28;20039;-71
2022/03/28 09:58:48;;;;;;;8.43;5.93;;;13.50;63.10;;;;;;5029928;28;20559;-70
2022/03/28 10:01:21;;;;;;;11.65;7.47;;;13.50;62.90;;;;;;5028277;28;20057;-70
2022/03/28 10:03:49;;;;;;;10.48;6.55;;;13.60;62.90;;;;;;5029960;28;20025;-71
2022/03/28 10:06:15;;;;;;;12.43;7.20;;;13.60;62.70;;;;;;5030193;28;20045;-71
2022/03/28 10:08:41;;;;;;;9.70;6.18;;;13.70;62.50;;;;;;5028840;28;20393;-71
2022/03/28 10:11:08;;;;;;;9.18;6.28;;;13.80;62.40;;;;;;5023339;28;20021;-69
2022/03/28 10:13:34;;;;;;;11.55;7.78;;;13.80;62.20;;;;;;5023266;28;20041;-70
2022/03/28 10:16:02;;;;;;;8.90;6.03;;;13.90;62.30;;;;;;5029351;28;20052;-70
2022/03/28 10:18:33;;;;;;;13.20;8.93;;;13.90;62.20;;;;;;5024221;28;20055;-68
2022/03/28 10:21:15;;;;;;;11.35;7.45;;;13.80;62.00;;;;;;5028434;28;20380;-70
2022/03/28 10:24:01;;;;;;;11.18;7.18;;;13.80;62.40;;;;;;5024560;28;20021;-70
2022/03/28 10:26:33;;;;;;;10.30;7.20;;;13.90;62.50;;;;;;5025699;28;20095;-70
2022/03/28 10:29:00;;;;;;;;;;;14.00;62.20;;;;;;5025642;28;20021;-69
2022/03/28 10:31:26;;;;;;;10.38;7.60;;;14.00;62.30;;;;;;5027801;28;20379;-71
2022/03/28 10:33:52;;;;;;;10.60;7.72;;;14.00;62.20;;;;;;5027071;28;20030;-70
2022/03/28 10:36:27;;;;;;;11.75;7.60;;;14.10;62.10;;;;;;5023699;28;20025;-70
2022/03/28 10:38:57;;;;;;;9.32;6.60;;;14.00;62.00;;;;;;5023117;28;20029;-69
2022/03/28 10:41:25;;;;;;;9.50;6.57;;;14.10;62.20;;;;;;5024445;28;20060;-69
2022/03/28 10:43:51;;;;;;;14.00;9.40;;;14.10;62.20;;;;;;5024979;28;20034;-69
2022/03/28 10:46:18;;;;;;;12.43;8.05;;;14.20;62.00;;;;;;5026613;28;20179;-69
2022/03/28 10:48:48;;;;;;;11.00;8.20;;;14.10;62.00;;;;;;5023572;28;20022;-70
2022/03/28 10:51:21;;;;;;;12.93;9.40;;;14.20;62.20;;;;;;5026606;28;20116;-70
2022/03/28 10:53:48;;;;;;;13.65;10.30;;;14.20;62.00;;;;;;5025852;28;20083;-70
2022/03/28 10:56:17;;;;;;;11.63;8.88;;;14.10;61.90;;;;;;5025310;28;20369;-70
2022/03/28 10:58:54;;;;;;;11.48;7.90;;;14.10;62.00;;;;;;5025241;28;20037;-68
2022/03/28 11:01:28;;;;;;;10.35;7.72;;;14.10;62.20;;;;;;5024822;28;20514;-69
2022/03/28 11:04:12;;;;;;;11.70;8.27;;;14.20;62.30;;;;;;5025091;28;20048;-69
2022/03/28 11:07:04;;;;;;;12.80;8.30;;;14.20;62.40;;;;;;5021286;28;20035;-69
2022/03/28 11:09:43;;;;;;;11.52;7.72;;;14.20;62.60;;;;;;5024163;28;20022;-69
2022/03/28 11:12:39;;;;;;;12.23;7.80;;;14.40;62.40;;;;;;5019631;28;20040;-69
2022/03/28 11:15:21;;;;;;;10.20;7.95;;;14.50;61.90;;;;;;5013346;28;20037;-69
2022/03/28 11:18:01;;;;;;;7.65;5.80;;;14.60;61.80;;;;;;5025238;28;20419;-69
2022/03/28 11:20:28;;;;;;;11.45;8.13;;;14.70;61.60;;;;;;5024633;28;20236;-69
2022/03/28 11:22:55;;;;;;;12.25;9.13;;;14.70;61.50;;;;;;5021425;28;20030;-69
2022/03/28 11:25:27;;;;;;;12.40;8.98;;;14.70;61.40;;;;;;5023907;28;20040;-69
2022/03/28 11:28:05;;;;;;;15.68;9.55;;;14.60;61.70;;;;;;5030287;28;20025;-69
2022/03/28 11:30:30;;;;;;;10.50;8.20;;;14.70;61.90;;;;;;5028528;28;20582;-69
2022/03/28 11:32:56;;;;;;;12.43;8.55;;;14.90;61.80;;;;;;5025867;28;20103;-69
2022/03/28 11:35:22;;;;;;;10.85;7.75;;;15.00;61.20;;;;;;5026238;28;20840;-69
2022/03/28 11:37:48;;;;;;;12.43;9.57;;;15.10;61.10;;;;;;5032783;28;20025;-71
2022/03/28 11:40:14;;;;;;;13.68;8.30;;;15.10;60.50;;;;;;5030771;28;20111;-70
2022/03/28 11:42:45;;;;;;;15.10;10.25;;;15.30;60.60;;;;;;5029440;28;20464;-70
2022/03/28 11:45:12;;;;;;;11.68;8.00;;;15.40;60.10;;;;;;5027514;28;20069;-71
2022/03/28 11:47:48;;;;;;;13.00;8.77;;;15.40;60.00;;;;;;5035287;28;20029;-71
2022/03/28 11:50:14;;;;;;;15.50;9.35;;;15.60;59.80;;;;;;5030356;28;20029;-69
2022/03/28 11:52:50;;;;;;;12.50;8.32;;;15.50;59.60;;;;;;5029672;28;20468;-70
2022/03/28 11:55:22;;;;;;;14.18;8.48;;;15.40;60.00;;;;;;5032293;28;20014;-70
2022/03/28 12:00:34;;;;;;;13.43;8.48;;;15.70;59.80;;;;;;5031856;28;20612;-70
2022/03/28 12:03:00;;;;;;;9.90;6.20;;;15.90;59.20;;;;;;5031221;28;20048;-71
2022/03/28 12:05:36;;;;;;;12.02;8.32;;;16.00;59.10;;;;;;5032725;28;20018;-72
2022/03/28 12:08:13;;;;;;;13.02;8.52;;;16.10;58.80;;;;;;5030100;28;20033;-70
2022/03/28 12:10:41;;;;;;;13.25;8.45;;;16.10;58.40;;;;;;5024480;28;20087;-70
2022/03/28 12:13:07;;;;;;;11.30;7.85;;;16.00;58.30;;;;;;5030173;28;20033;-70
2022/03/28 12:15:39;;;;;;;11.13;7.80;;;16.10;58.50;;;;;;5032294;28;20116;-71
2022/03/28 12:18:07;;;;;;;14.13;9.35;;;16.20;58.40;;;;;;5028685;28;20096;-70
2022/03/28 12:20:36;;;;;;;11.38;7.97;;;16.30;57.80;;;;;;5022341;28;20028;-70
2022/03/28 12:23:04;;;;;;;11.15;7.25;;;16.50;57.80;;;;;;5033138;28;20032;-70
2022/03/28 12:25:38;;;;;;;12.93;9.20;;;16.70;57.50;;;;;;5026193;28;20090;-72
2022/03/28 12:28:10;;;;;;;11.15;8.68;;;16.50;56.80;;;;;;5032265;28;20060;-71
2022/03/28 12:30:40;;;;;;;13.98;9.75;;;16.40;57.40;;;;;;5032302;28;20054;-72
2022/03/28 12:33:12;;;;;;;12.63;8.82;;;16.50;57.30;;;;;;5033310;28;20067;-71
2022/03/28 12:35:50;;;;;;;11.68;8.52;;;16.50;57.30;;;;;;5034031;28;20032;-71
2022/03/28 12:38:22;;;;;;;11.85;8.60;;;16.60;57.20;;;;;;5028037;28;20043;-72
2022/03/28 12:40:52;;;;;;;;;;;16.60;57.00;;;;;;5026008;28;20040;-72
2022/03/28 12:43:20;;;;;;;11.73;8.23;;;16.70;57.00;;;;;;5030407;28;19916;-71
2022/03/28 12:45:46;;;;;;;18.63;10.90;;;16.90;56.70;;;;;;5029069;28;20021;-71
2022/03/28 12:48:12;;;;;;;11.43;8.02;;;16.90;55.80;;;;;;5027845;28;20032;-70
2022/03/28 12:50:58;;;;;;;12.60;8.55;;;17.00;55.80;;;;;;5031544;28;20033;-70
2022/03/28 12:53:27;;;;;;;14.07;9.35;;;17.30;55.70;;;;;;5036462;28;20091;-70